Time,TemperatureF,DewpointF,PressureIn,WindDirection,WindDirectionDegrees,WindSpeedMPH,WindSpeedGustMPH,Humidity,HourlyPrecipIn,Conditions,Clouds,dailyrainin,SoftwareType,DateUTC
2013-07-13 09:01:00,63.0,58.0,30.16,SE,135,0.0,0.0,85,0.00,,,0.00,,2013-07-13 13:01:00,
2013-07-13 09:12:00,63.0,58.0,30.16,SE,135,0.0,0.0,85,0.18,,,0.18,,2013-07-13 13:12:00,
2013-07-13 09:22:00,64.0,59.0,30.16,SE,135,0.0,0.0,85,0.18,,,0.18,,2013-07-13 13:22:00,
2013-07-13 09:32:00,64.0,59.0,30.16,SE,135,0.0,0.0,85,0.00,,,0.18,,2013-07-13 13:32:00,
2013-07-13 10:02:00,66.0,62.0,30.17,SE,135,0.0,0.0,86,0.00,,,0.18,,2013-07-13 14:02:00,
2013-07-13 10:22:00,66.0,62.0,30.17,North,-999,-999.0,-999.0,86,0.00,,,0.18,,2013-07-13 14:22:00,
2013-07-13 10:32:00,66.0,62.0,30.17,North,-999,-999.0,-999.0,86,0.00,,,0.18,,2013-07-13 14:32:00,
2013-07-13 10:43:00,66.0,62.0,30.17,North,-999,-999.0,-999.0,86,0.00,,,0.18,,2013-07-13 14:43:00,
2013-07-13 10:53:00,66.0,62.0,30.17,North,-999,-999.0,-999.0,86,0.00,,,0.18,,2013-07-13 14:53:00,
2013-07-13 11:02:00,71.0,66.0,30.18,SE,135,0.0,0.0,83,0.00,,,0.18,,2013-07-13 15:02:00,
2013-07-13 11:22:00,72.0,67.0,30.18,WSW,247,0.0,0.0,83,0.00,,,0.18,,2013-07-13 15:22:00,
2013-07-13 11:33:00,72.0,67.0,30.18,WSW,247,0.0,0.0,83,0.00,,,0.18,,2013-07-13 15:33:00,
2013-07-13 11:43:00,72.0,67.0,30.18,North,-999,-999.0,-999.0,83,0.00,,,0.18,,2013-07-13 15:43:00,
2013-07-13 11:53:00,72.0,67.0,30.18,North,-999,-999.0,-999.0,83,0.00,,,0.18,,2013-07-13 15:53:00,
2013-07-13 12:02:00,72.0,67.0,30.18,North,-999,-999.0,-999.0,83,0.00,,,0.18,,2013-07-13 16:02:00,
2013-07-13 12:11:00,72.0,64.0,30.18,SE,135,0.0,0.0,75,0.00,,,0.18,,2013-07-13 16:11:00,
2013-07-13 12:22:00,72.0,64.0,30.18,ENE,67,0.0,0.0,75,0.00,,,0.18,,2013-07-13 16:22:00,
2013-07-13 12:33:00,72.0,64.0,30.18,ENE,67,0.0,0.0,75,0.00,,,0.18,,2013-07-13 16:33:00,
2013-07-13 12:43:00,72.0,64.0,30.18,ENE,67,0.0,0.0,75,0.00,,,0.18,,2013-07-13 16:43:00,
2013-07-13 12:53:00,72.0,62.0,30.18,East,90,0.0,0.0,72,0.00,,,0.18,,2013-07-13 16:53:00,
2013-07-13 13:01:00,72.0,62.0,30.18,East,90,0.0,0.0,72,0.00,,,0.18,,2013-07-13 17:01:00,
2013-07-13 13:12:00,72.0,62.0,30.17,ENE,67,0.0,0.0,71,0.00,,,0.18,,2013-07-13 17:12:00,
2013-07-13 13:22:00,72.0,61.0,30.17,SSE,157,0.0,0.0,69,0.00,,,0.18,,2013-07-13 17:22:00,
2013-07-13 13:33:00,72.0,61.0,30.18,NE,45,0.0,0.0,69,0.00,,,0.18,,2013-07-13 17:33:00,
2013-07-13 13:43:00,72.0,61.0,30.17,East,90,0.0,0.0,68,0.00,,,0.18,,2013-07-13 17:43:00,
2013-07-13 13:52:00,72.0,60.0,30.18,North,0,0.0,0.0,67,0.00,,,0.18,,2013-07-13 17:52:00,
2013-07-13 16:01:00,75.0,63.0,30.15,ENE,67,0.0,0.0,66,0.00,,,0.18,,2013-07-13 20:01:00,
2013-07-13 16:11:00,75.0,63.0,30.16,ENE,67,0.0,0.0,66,0.00,,,0.18,,2013-07-13 20:11:00,
2013-07-13 16:22:00,75.0,63.0,30.16,ENE,67,0.0,0.0,66,0.00,,,0.18,,2013-07-13 20:22:00,
2013-07-13 16:33:00,76.0,64.0,30.15,ENE,67,0.0,0.0,66,0.00,,,0.18,,2013-07-13 20:33:00,
2013-07-13 16:43:00,77.0,65.0,30.14,ENE,67,0.0,0.0,67,0.00,,,0.18,,2013-07-13 20:43:00,
2013-07-13 16:52:00,78.0,66.0,30.14,SE,135,0.0,0.0,67,0.00,,,0.18,,2013-07-13 20:52:00,
2013-07-13 17:02:00,78.0,66.0,30.14,SE,135,0.0,0.0,66,0.00,,,0.18,,2013-07-13 21:02:00,
2013-07-13 17:12:00,79.0,67.0,30.14,SE,135,0.0,0.0,67,0.00,,,0.18,,2013-07-13 21:12:00,
2013-07-13 17:22:00,80.0,68.0,30.14,ESE,112,0.0,0.0,66,0.00,,,0.18,,2013-07-13 21:22:00,
2013-07-13 17:32:00,80.0,68.0,30.13,ENE,67,0.0,0.0,66,0.00,,,0.18,,2013-07-13 21:32:00,
2013-07-13 17:43:00,80.0,68.0,30.13,SE,135,4.0,4.0,66,0.00,,,0.18,,2013-07-13 21:43:00,
2013-07-13 17:51:00,80.0,68.0,30.14,North,-999,-999.0,-999.0,66,0.00,,,0.18,,2013-07-13 21:51:00,
2013-07-13 17:53:00,80.0,68.0,30.14,SSE,157,0.0,4.0,66,0.00,,,0.18,,2013-07-13 21:53:00,
2013-07-13 18:01:00,80.0,68.0,30.14,SSE,157,0.0,0.0,66,0.00,,,0.18,,2013-07-13 22:01:00,
2013-07-13 18:12:00,80.0,68.0,30.14,North,-999,-999.0,-999.0,66,0.00,,,0.18,,2013-07-13 22:12:00,
2013-07-13 18:22:00,80.0,68.0,30.14,North,-999,-999.0,-999.0,66,0.00,,,0.18,,2013-07-13 22:22:00,
2013-07-13 18:32:00,80.0,68.0,30.14,North,-999,-999.0,-999.0,66,0.00,,,0.18,,2013-07-13 22:32:00,
2013-07-13 18:43:00,80.0,68.0,30.14,North,-999,-999.0,-999.0,66,0.00,,,0.18,,2013-07-13 22:43:00,